Terminal Aerodrome Forecast
Issued by NWS Midland/Odessa, TX

Home | Current Version | Previous Version | Text Only | Print | Product List | Glossary On
Versions: 1 2 3 4 5 6 7 8 9 10 11 12 13 14 15 16 17 18 19
396
FTUS44 KMAF 240521
TAFMAF
TAF
KMAF 240521Z 2406/2506 17013G18KT P6SM SKC
     FM240800 17012KT P6SM BKN020
     FM241500 21015G20KT P6SM SCT250
     FM250100 17010KT P6SM SCT250=

USA.gov is the U.S. government's official web portal to all federal, state and local government web resources and services.